Time;durP1;ratioP1;P1;durP2;ratioP2;P2;SDS_P1;SDS_P2;PMS_P1;PMS_P2;Temp;Humidity;BMP_temperature;BMP_pressure;BME280_temperature;BME280_humidity;BME280_pressure;Samples;Min_cycle;Max_cycle;Signal;HPM_P1;HPM_P2
2022/05/04 00:00:06;;;;;;;3.60;2.05;;;11.90;99.90;;;;;;171846;28;1281;-70
2022/05/04 00:00:12;;;;;;;3.50;2.05;;;11.90;99.90;;;;;;172265;28;1133;-71
2022/05/04 00:00:18;;;;;;;2.75;2.03;;;11.90;99.90;;;;;;172853;28;1421;-70
2022/05/04 00:00:24;;;;;;;3.00;2.20;;;11.90;99.90;;;;;;173086;28;800;-70
2022/05/04 00:00:30;;;;;;;3.42;2.20;;;11.90;99.90;;;;;;173298;28;1109;-68
2022/05/04 00:00:35;;;;;;;3.33;2.03;;;11.90;99.90;;;;;;173873;28;1001;-71
2022/05/04 00:00:41;;;;;;;3.65;2.10;;;11.90;99.90;;;;;;172918;28;1056;-71
2022/05/04 00:00:47;;;;;;;3.80;2.10;;;11.90;99.90;;;;;;172089;28;1767;-71
2022/05/04 00:00:52;;;;;;;3.70;2.10;;;11.90;99.90;;;;;;172404;28;851;-68
2022/05/04 00:00:58;;;;;;;3.33;2.00;;;11.90;99.90;;;;;;173540;28;1203;-70
2022/05/04 00:01:04;;;;;;;3.08;2.00;;;11.90;99.90;;;;;;173079;28;1069;-69
2022/05/04 00:01:10;;;;;;;3.13;2.05;;;11.90;99.90;;;;;;173598;28;1120;-67
2022/05/04 00:01:16;;;;;;;2.72;1.98;;;11.90;99.90;;;;;;173846;28;1045;-70
2022/05/04 00:01:22;;;;;;;2.43;1.80;;;11.90;99.90;;;;;;173673;28;1202;-69
2022/05/04 00:01:27;;;;;;;2.40;1.83;;;11.90;99.90;;;;;;173844;28;2013;-70
2022/05/04 00:01:33;;;;;;;2.23;1.80;;;11.90;99.90;;;;;;173587;28;1201;-70
2022/05/04 00:01:39;;;;;;;1.90;1.70;;;11.90;99.90;;;;;;173450;28;1429;-71
2022/05/04 00:01:45;;;;;;;2.00;1.80;;;11.90;99.90;;;;;;172494;28;895;-71
2022/05/04 00:01:51;;;;;;;2.20;1.90;;;11.90;99.90;;;;;;173356;28;1049;-69
2022/05/04 00:01:56;;;;;;;2.08;1.80;;;11.90;99.90;;;;;;173849;28;1002;-71
2022/05/04 00:02:02;;;;;;;2.00;1.80;;;11.90;99.90;;;;;;172557;28;1359;-70
2022/05/04 00:02:07;;;;;;;2.05;1.77;;;11.90;99.90;;;;;;172496;28;951;-71
2022/05/04 00:02:13;;;;;;;2.10;1.73;;;11.90;99.90;;;;;;172462;28;1002;-67
2022/05/04 00:02:19;;;;;;;2.67;1.73;;;11.90;99.90;;;;;;172528;28;1454;-70
2022/05/04 00:02:24;;;;;;;3.22;1.88;;;11.90;99.90;;;;;;171864;28;919;-70
2022/05/04 00:02:30;;;;;;;3.80;2.00;;;11.90;99.90;;;;;;172539;28;1429;-69
2022/05/04 00:02:39;;;;;;;4.25;2.00;;;11.90;99.90;;;;;;173161;28;1006;-71
2022/05/04 00:02:45;;;;;;;4.24;2.01;;;12.00;99.90;;;;;;172988;28;1408;-69
2022/05/04 00:02:51;;;;;;;4.22;1.90;;;11.90;99.90;;;;;;173122;28;828;-70
2022/05/04 00:02:56;;;;;;;3.92;1.92;;;11.90;99.90;;;;;;173107;28;1326;-70
2022/05/04 00:03:02;;;;;;;3.93;2.03;;;12.00;99.90;;;;;;171555;28;1240;-68
2022/05/04 00:03:08;;;;;;;3.90;2.00;;;12.00;99.90;;;;;;172405;28;1275;-69
2022/05/04 00:03:13;;;;;;;4.28;2.10;;;11.90;99.90;;;;;;172395;28;1219;-71
2022/05/04 00:03:19;;;;;;;3.40;2.10;;;12.00;99.90;;;;;;172436;28;1041;-69
2022/05/04 00:03:25;;;;;;;3.30;2.00;;;12.00;99.90;;;;;;172476;28;1126;-71
2022/05/04 00:03:30;;;;;;;4.85;2.10;;;12.00;99.90;;;;;;172232;28;1135;-69
2022/05/04 00:03:39;;;;;;;4.90;2.20;;;12.00;99.90;;;;;;172556;28;1188;-70
2022/05/04 00:03:44;;;;;;;7.97;2.46;;;12.00;99.90;;;;;;172469;28;1045;-69
2022/05/04 00:03:50;;;;;;;8.43;2.50;;;12.00;99.90;;;;;;172504;28;1123;-70
2022/05/04 00:03:55;;;;;;;8.00;2.42;;;12.00;99.90;;;;;;172181;28;1550;-69
2022/05/04 00:04:01;;;;;;;6.67;2.23;;;11.90;99.90;;;;;;172435;28;1348;-69
2022/05/04 00:04:07;;;;;;;6.22;2.00;;;11.90;99.90;;;;;;173047;28;1285;-71
2022/05/04 00:04:13;;;;;;;3.17;1.85;;;11.90;99.90;;;;;;173126;28;1224;-68
2022/05/04 00:04:18;;;;;;;2.63;1.80;;;12.00;99.90;;;;;;173713;28;1291;-69
2022/05/04 00:04:24;;;;;;;3.05;1.95;;;11.90;99.90;;;;;;174466;28;832;-70
2022/05/04 00:04:29;;;;;;;3.72;2.20;;;11.90;99.90;;;;;;174152;28;1325;-69
2022/05/04 00:04:35;;;;;;;4.53;2.40;;;11.90;99.90;;;;;;173068;28;1290;-70
2022/05/04 00:04:41;;;;;;;4.43;2.38;;;11.90;99.90;;;;;;172880;28;1183;-70
2022/05/04 00:04:46;;;;;;;4.30;2.28;;;11.90;99.90;;;;;;173104;28;1147;-71
2022/05/04 00:04:52;;;;;;;5.03;2.30;;;11.90;99.90;;;;;;172380;28;1290;-67
2022/05/04 00:04:58;;;;;;;4.50;2.15;;;11.90;99.90;;;;;;172557;28;1352;-69
2022/05/04 00:05:04;;;;;;;3.28;1.95;;;11.90;99.90;;;;;;172247;28;1251;-72
2022/05/04 00:05:10;;;;;;;3.45;1.95;;;11.90;99.90;;;;;;172690;28;1470;-70
2022/05/04 00:05:15;;;;;;;3.50;2.00;;;11.90;99.90;;;;;;173150;28;1143;-70
2022/05/04 00:05:21;;;;;;;2.80;1.90;;;11.90;99.90;;;;;;171919;28;1599;-69
2022/05/04 00:05:26;;;;;;;3.17;1.80;;;11.90;99.90;;;;;;172453;28;959;-71
2022/05/04 00:05:32;;;;;;;3.60;1.90;;;11.90;99.90;;;;;;172075;28;1883;-66
2022/05/04 00:05:38;;;;;;;3.67;1.80;;;11.90;99.90;;;;;;172121;28;1541;-71
2022/05/04 00:05:44;;;;;;;4.07;1.77;;;11.90;99.90;;;;;;172470;28;891;-71
2022/05/04 00:05:50;;;;;;;4.43;1.90;;;11.90;99.90;;;;;;172967;28;1090;-71
2022/05/04 00:05:55;;;;;;;4.25;1.98;;;11.90;99.90;;;;;;173711;28;1634;-70
2022/05/04 00:06:01;;;;;;;4.15;2.00;;;11.90;99.90;;;;;;173204;28;1513;-69
2022/05/04 00:06:07;;;;;;;4.47;2.10;;;11.90;99.90;;;;;;172911;28;1434;-71
2022/05/04 00:06:12;;;;;;;3.97;2.10;;;11.90;99.90;;;;;;171762;28;2467;-70
2022/05/04 00:06:18;;;;;;;4.40;2.20;;;11.90;99.90;;;;;;173535;28;1372;-67
2022/05/04 00:06:24;;;;;;;4.63;2.15;;;11.90;99.90;;;;;;173503;28;1431;-69
2022/05/04 00:06:29;;;;;;;4.43;2.03;;;11.90;99.90;;;;;;172797;28;1116;-72
2022/05/04 00:06:35;;;;;;;3.85;2.00;;;11.90;99.90;;;;;;173090;28;1319;-70
2022/05/04 00:06:41;;;;;;;3.83;2.00;;;11.90;99.90;;;;;;172995;28;1743;-67
2022/05/04 00:06:46;;;;;;;3.83;2.00;;;11.90;99.90;;;;;;173000;28;1527;-67
2022/05/04 00:06:52;;;;;;;2.70;1.90;;;11.90;99.90;;;;;;171755;28;1208;-68
2022/05/04 00:06:58;;;;;;;2.45;1.88;;;11.90;99.90;;;;;;172093;28;1306;-70
2022/05/04 00:07:03;;;;;;;2.73;1.90;;;11.90;99.90;;;;;;172214;28;982;-71
2022/05/04 00:07:09;;;;;;;2.67;1.85;;;11.90;99.90;;;;;;172585;28;1528;-69
2022/05/04 00:07:15;;;;;;;3.03;1.90;;;11.90;99.90;;;;;;173149;28;915;-70
2022/05/04 00:07:20;;;;;;;3.23;2.00;;;11.90;99.90;;;;;;172102;28;1270;-69
2022/05/04 00:07:26;;;;;;;3.67;2.10;;;11.90;99.90;;;;;;172476;28;1075;-70
2022/05/04 00:07:31;;;;;;;4.60;2.20;;;11.90;99.90;;;;;;172975;28;2540;-70
2022/05/04 00:07:37;;;;;;;4.78;2.20;;;11.90;99.90;;;;;;171847;28;1162;-70
2022/05/04 00:07:44;;;;;;;4.68;2.20;;;11.90;99.90;;;;;;172368;28;1344;-72
2022/05/04 00:07:50;;;;;;;4.68;2.14;;;11.90;99.90;;;;;;172533;28;1323;-71
2022/05/04 00:07:56;;;;;;;4.47;2.22;;;11.90;99.90;;;;;;172464;28;1215;-71
2022/05/04 00:08:01;;;;;;;3.53;2.20;;;11.90;99.90;;;;;;172223;28;1404;-69
2022/05/04 00:08:07;;;;;;;3.47;2.30;;;11.80;99.90;;;;;;171676;28;1910;-69
2022/05/04 00:08:13;;;;;;;3.03;2.20;;;11.80;99.90;;;;;;172163;28;1652;-71
2022/05/04 00:08:19;;;;;;;2.93;2.13;;;11.80;99.90;;;;;;171850;28;1543;-70
2022/05/04 00:08:24;;;;;;;2.83;2.03;;;11.80;99.90;;;;;;172459;28;943;-68
2022/05/04 00:08:30;;;;;;;2.80;2.00;;;11.80;99.90;;;;;;171811;28;1513;-70
2022/05/04 00:08:37;;;;;;;2.83;2.00;;;11.80;99.90;;;;;;171964;28;1784;-72
2022/05/04 00:08:43;;;;;;;2.97;2.08;;;11.80;99.90;;;;;;172502;28;1034;-71
2022/05/04 00:08:49;;;;;;;3.27;2.20;;;11.80;99.90;;;;;;173007;28;1195;-70
2022/05/04 00:08:55;;;;;;;3.80;2.40;;;11.80;99.90;;;;;;172920;28;1049;-69
2022/05/04 00:09:00;;;;;;;4.20;2.58;;;11.70;99.90;;;;;;172975;28;1323;-70
2022/05/04 00:09:06;;;;;;;4.13;2.63;;;11.70;99.90;;;;;;172356;28;1237;-69
2022/05/04 00:09:11;;;;;;;4.40;2.63;;;11.70;99.90;;;;;;172372;28;2009;-71
2022/05/04 00:09:17;;;;;;;4.10;2.53;;;11.70;99.90;;;;;;172432;28;1315;-69
2022/05/04 00:09:23;;;;;;;3.43;2.30;;;11.70;99.90;;;;;;173296;28;1350;-71
2022/05/04 00:09:28;;;;;;;2.75;2.08;;;11.70;99.90;;;;;;173169;28;1439;-70
2022/05/04 00:09:34;;;;;;;2.50;1.87;;;11.70;99.90;;;;;;172931;28;1228;-69
2022/05/04 00:09:39;;;;;;;2.20;1.70;;;11.70;99.90;;;;;;172454;28;973;-71
2022/05/04 00:09:45;;;;;;;2.05;1.75;;;11.70;99.90;;;;;;172712;28;1071;-69
2022/05/04 00:09:50;;;;;;;2.13;1.80;;;11.70;99.90;;;;;;172268;28;1214;-66
2022/05/04 00:09:57;;;;;;;2.20;1.90;;;11.70;99.90;;;;;;171742;28;2102;-70
2022/05/04 00:10:04;;;;;;;2.13;1.90;;;11.70;99.90;;;;;;171387;28;1337;-69
2022/05/04 00:10:10;;;;;;;2.27;1.90;;;11.70;99.90;;;;;;171176;28;2147;-67
2022/05/04 00:10:15;;;;;;;2.35;1.92;;;11.70;99.90;;;;;;171937;28;1237;-70
2022/05/04 00:10:22;;;;;;;2.28;1.90;;;11.70;99.90;;;;;;172362;28;1404;-70
2022/05/04 00:10:28;;;;;;;2.77;2.07;;;11.70;99.90;;;;;;171985;28;1111;-71
2022/05/04 00:10:34;;;;;;;3.10;2.22;;;11.70;99.90;;;;;;172377;28;1214;-71
2022/05/04 00:10:40;;;;;;;3.38;2.30;;;11.70;99.90;;;;;;173109;28;1175;-70
2022/05/04 00:10:46;;;;;;;3.33;2.27;;;11.70;99.90;;;;;;173058;28;899;-70
2022/05/04 00:10:51;;;;;;;3.83;2.30;;;11.70;99.90;;;;;;171766;28;1525;-69
2022/05/04 00:10:57;;;;;;;4.70;2.20;;;11.70;99.90;;;;;;172535;28;1197;-70
2022/05/04 00:11:03;;;;;;;6.37;2.17;;;11.70;99.90;;;;;;172339;28;966;-68
2022/05/04 00:11:09;;;;;;;6.43;2.10;;;11.70;99.90;;;;;;172478;28;1145;-70
2022/05/04 00:11:14;;;;;;;6.32;2.05;;;11.70;99.90;;;;;;172352;28;1254;-71
2022/05/04 00:11:20;;;;;;;6.32;2.00;;;11.70;99.90;;;;;;171807;28;1351;-70
2022/05/04 00:11:26;;;;;;;5.17;2.00;;;11.70;99.90;;;;;;171867;28;820;-71
2022/05/04 00:11:31;;;;;;;3.47;1.85;;;11.70;99.90;;;;;;171811;28;1082;-69
2022/05/04 00:11:37;;;;;;;2.50;1.90;;;11.70;99.90;;;;;;171538;28;1434;-66
2022/05/04 00:11:44;;;;;;;2.40;1.83;;;11.70;99.90;;;;;;171873;28;1589;-66
2022/05/04 00:11:50;;;;;;;3.13;2.03;;;11.60;99.90;;;;;;171316;28;2146;-71
2022/05/04 00:11:55;;;;;;;3.78;2.15;;;11.60;99.90;;;;;;171604;28;1633;-70
2022/05/04 00:12:01;;;;;;;4.37;2.20;;;11.60;99.90;;;;;;171799;28;1020;-69
2022/05/04 00:12:07;;;;;;;4.80;2.20;;;11.60;99.90;;;;;;171683;28;1382;-71
2022/05/04 00:12:12;;;;;;;4.75;2.28;;;11.60;99.90;;;;;;172435;28;1102;-71
2022/05/04 00:12:18;;;;;;;5.00;2.30;;;11.60;99.90;;;;;;172895;28;1406;-70
2022/05/04 00:12:25;;;;;;;4.45;2.30;;;11.60;99.90;;;;;;172992;28;1243;-67
2022/05/04 00:12:31;;;;;;;4.00;2.17;;;11.60;99.90;;;;;;173003;28;1599;-71
2022/05/04 00:12:36;;;;;;;3.45;2.08;;;11.50;99.90;;;;;;173124;28;902;-69
2022/05/04 00:12:42;;;;;;;3.73;2.10;;;11.60;99.90;;;;;;171585;28;1531;-68
2022/05/04 00:12:48;;;;;;;3.40;2.00;;;11.50;99.90;;;;;;171753;28;800;-71
2022/05/04 00:12:53;;;;;;;3.05;1.90;;;11.50;99.90;;;;;;172433;28;1154;-70
2022/05/04 00:12:59;;;;;;;2.97;1.93;;;11.50;99.90;;;;;;171104;28;1074;-68
2022/05/04 00:13:05;;;;;;;3.00;2.00;;;11.50;99.90;;;;;;171337;28;1150;-70
2022/05/04 00:13:11;;;;;;;3.15;2.10;;;11.50;99.90;;;;;;172351;28;1303;-70
2022/05/04 00:13:17;;;;;;;3.05;2.13;;;11.60;99.90;;;;;;171836;28;1162;-68
2022/05/04 00:13:23;;;;;;;3.15;2.10;;;11.50;99.90;;;;;;171780;28;1229;-70
2022/05/04 00:13:29;;;;;;;4.00;2.17;;;11.50;99.90;;;;;;171746;28;875;-71
2022/05/04 00:13:34;;;;;;;4.22;2.22;;;11.50;99.90;;;;;;171828;28;1366;-70
2022/05/04 00:13:40;;;;;;;4.07;2.20;;;11.50;99.90;;;;;;172369;28;1564;-69
2022/05/04 00:13:45;;;;;;;4.07;2.20;;;11.50;99.90;;;;;;172026;28;1547;-69
2022/05/04 00:13:51;;;;;;;4.23;2.23;;;11.50;99.90;;;;;;172348;28;1903;-71
2022/05/04 00:13:57;;;;;;;3.17;2.10;;;11.50;99.90;;;;;;172913;28;1225;-66
2022/05/04 00:14:02;;;;;;;3.22;2.10;;;11.50;99.90;;;;;;173325;28;1277;-70
2022/05/04 00:14:08;;;;;;;3.37;2.10;;;11.50;99.90;;;;;;172941;28;1337;-68
2022/05/04 00:14:14;;;;;;;3.67;2.23;;;11.40;99.90;;;;;;172930;28;1617;-70
2022/05/04 00:14:20;;;;;;;3.83;2.20;;;11.40;99.90;;;;;;172338;28;1527;-68
2022/05/04 00:14:25;;;;;;;4.18;2.38;;;11.40;99.90;;;;;;173053;28;1414;-70
2022/05/04 00:14:32;;;;;;;3.87;2.27;;;11.40;99.90;;;;;;173676;28;1453;-70
2022/05/04 00:14:37;;;;;;;3.60;2.10;;;11.40;99.90;;;;;;173650;28;1026;-68
2022/05/04 00:14:43;;;;;;;3.47;2.00;;;11.40;99.90;;;;;;173156;28;1046;-71
2022/05/04 00:14:48;;;;;;;3.08;1.95;;;11.40;99.90;;;;;;173070;28;1465;-72
2022/05/04 00:14:54;;;;;;;2.70;1.80;;;11.40;99.90;;;;;;172493;28;1145;-71
2022/05/04 00:15:00;;;;;;;2.78;1.85;;;11.40;99.90;;;;;;172965;28;1145;-69
2022/05/04 00:15:07;;;;;;;2.93;1.83;;;11.40;99.90;;;;;;172330;28;1198;-70
2022/05/04 00:15:12;;;;;;;3.23;1.90;;;11.40;99.90;;;;;;173525;28;1700;-70
2022/05/04 00:15:18;;;;;;;3.35;2.05;;;11.40;99.90;;;;;;173737;28;1083;-70
2022/05/04 00:15:24;;;;;;;3.45;2.10;;;11.40;99.90;;;;;;172553;28;1570;-72
2022/05/04 00:15:30;;;;;;;3.20;2.10;;;11.40;99.90;;;;;;171175;28;1519;-67
2022/05/04 00:15:36;;;;;;;3.17;2.20;;;11.40;99.90;;;;;;171643;28;1399;-71
2022/05/04 00:15:42;;;;;;;2.74;2.12;;;11.40;99.90;;;;;;172421;28;895;-69
2022/05/04 00:15:48;;;;;;;2.85;2.10;;;11.40;99.90;;;;;;172200;28;1108;-71
2022/05/04 00:15:53;;;;;;;2.77;2.03;;;11.40;99.90;;;;;;172484;28;871;-71
2022/05/04 00:16:02;;;;;;;3.50;2.15;;;11.40;99.90;;;;;;172411;28;1303;-66
2022/05/04 00:16:08;;;;;;;3.87;2.23;;;11.40;99.90;;;;;;172457;28;1003;-69
2022/05/04 00:16:14;;;;;;;4.28;2.25;;;11.40;99.90;;;;;;173039;28;1122;-70
2022/05/04 00:16:19;;;;;;;4.77;2.30;;;11.40;99.90;;;;;;173070;28;1323;-70
2022/05/04 00:16:25;;;;;;;4.85;2.30;;;11.40;99.90;;;;;;172082;28;1983;-67
2022/05/04 00:16:31;;;;;;;4.57;2.20;;;11.40;99.90;;;;;;172800;28;1461;-66
2022/05/04 00:16:36;;;;;;;4.57;2.27;;;11.40;99.90;;;;;;172998;28;1247;-69
2022/05/04 00:16:42;;;;;;;4.38;2.20;;;11.40;99.90;;;;;;172834;28;1346;-69
2022/05/04 00:16:47;;;;;;;3.70;2.10;;;11.40;99.90;;;;;;172988;28;1550;-71
2022/05/04 00:16:53;;;;;;;3.57;2.00;;;11.40;99.90;;;;;;172841;28;989;-70
2022/05/04 00:16:59;;;;;;;3.22;1.98;;;11.30;99.90;;;;;;173644;28;1359;-68
2022/05/04 00:17:04;;;;;;;3.20;1.90;;;11.30;99.90;;;;;;173222;28;1282;-69
2022/05/04 00:17:10;;;;;;;3.13;1.80;;;11.40;99.90;;;;;;173447;28;1024;-70
2022/05/04 00:17:16;;;;;;;2.88;1.75;;;11.30;99.90;;;;;;173188;28;902;-72
2022/05/04 00:17:21;;;;;;;2.43;1.67;;;11.30;99.90;;;;;;171899;28;1534;-72
2022/05/04 00:17:27;;;;;;;2.47;1.70;;;11.30;99.90;;;;;;173818;28;1350;-69
2022/05/04 00:17:33;;;;;;;2.75;1.88;;;11.30;99.90;;;;;;172743;28;3209;-66
2022/05/04 00:17:38;;;;;;;2.67;2.00;;;11.30;99.90;;;;;;173507;28;1090;-69
2022/05/04 00:17:44;;;;;;;2.60;2.03;;;11.30;99.90;;;;;;173859;28;1049;-69
2022/05/04 00:17:50;;;;;;;2.90;2.20;;;11.30;99.90;;;;;;173207;28;1343;-68
2022/05/04 00:17:56;;;;;;;3.00;2.20;;;11.30;99.90;;;;;;172170;28;1432;-69
2022/05/04 00:18:01;;;;;;;3.30;2.17;;;11.30;99.90;;;;;;172394;28;1479;-71
2022/05/04 00:18:07;;;;;;;3.40;2.10;;;11.30;99.90;;;;;;171931;28;1231;-69
2022/05/04 00:18:12;;;;;;;3.43;2.13;;;11.20;99.90;;;;;;172735;28;1219;-68
2022/05/04 00:18:18;;;;;;;3.75;2.10;;;11.30;99.90;;;;;;173534;28;1416;-67
2022/05/04 00:18:24;;;;;;;3.95;2.15;;;11.20;99.90;;;;;;174231;28;2086;-70
2022/05/04 00:18:30;;;;;;;4.13;2.10;;;11.20;99.90;;;;;;173119;28;1102;-70
2022/05/04 00:18:35;;;;;;;3.55;2.03;;;11.20;99.90;;;;;;173828;28;890;-70
2022/05/04 00:18:41;;;;;;;3.55;2.00;;;11.20;99.90;;;;;;173604;28;1198;-70
2022/05/04 00:18:46;;;;;;;3.30;1.97;;;11.20;99.90;;;;;;172968;28;1614;-71
2022/05/04 00:18:52;;;;;;;3.97;2.03;;;11.20;99.90;;;;;;173062;28;1547;-69
2022/05/04 00:18:58;;;;;;;3.90;2.05;;;11.20;99.90;;;;;;172448;28;878;-71
2022/05/04 00:19:03;;;;;;;3.80;2.10;;;11.20;99.90;;;;;;173244;28;1017;-70
2022/05/04 00:19:09;;;;;;;4.20;2.20;;;11.20;99.90;;;;;;172926;28;1991;-69
2022/05/04 00:19:14;;;;;;;4.80;2.23;;;11.20;99.90;;;;;;173182;28;851;-70
2022/05/04 00:19:20;;;;;;;4.32;2.28;;;11.30;99.90;;;;;;173780;28;1273;-71
2022/05/04 00:19:26;;;;;;;4.73;2.30;;;11.30;99.90;;;;;;173085;28;1308;-71
2022/05/04 00:19:31;;;;;;;8.20;2.30;;;11.30;99.90;;;;;;173219;28;1953;-71
2022/05/04 00:19:37;;;;;;;8.30;2.28;;;11.30;99.90;;;;;;173725;28;1158;-70
2022/05/04 00:19:43;;;;;;;7.93;2.20;;;11.30;99.90;;;;;;173726;28;1217;-69
2022/05/04 00:19:48;;;;;;;7.50;2.05;;;11.30;99.90;;;;;;172106;28;1318;-71
2022/05/04 00:19:54;;;;;;;6.50;1.77;;;11.30;99.90;;;;;;171626;28;1468;-70
2022/05/04 00:19:59;;;;;;;4.27;1.70;;;11.30;99.90;;;;;;171685;28;1099;-69
2022/05/04 00:20:06;;;;;;;3.03;1.60;;;11.30;99.90;;;;;;171719;28;1306;-69
2022/05/04 00:20:11;;;;;;;2.73;1.80;;;11.30;99.90;;;;;;171017;28;998;-66
2022/05/04 00:20:17;;;;;;;2.63;1.80;;;11.30;99.90;;;;;;171624;28;1442;-68
2022/05/04 00:20:23;;;;;;;2.97;1.93;;;11.40;99.90;;;;;;172019;28;1046;-69
2022/05/04 00:20:29;;;;;;;2.70;2.03;;;11.40;99.90;;;;;;171903;28;2422;-70
2022/05/04 00:20:34;;;;;;;2.50;2.00;;;11.30;99.90;;;;;;172450;28;1032;-70
2022/05/04 00:20:40;;;;;;;2.95;1.95;;;11.30;99.90;;;;;;172433;28;1138;-70
2022/05/04 00:20:46;;;;;;;3.00;1.90;;;11.30;99.90;;;;;;172480;28;931;-70
2022/05/04 00:20:51;;;;;;;2.83;1.90;;;11.30;99.90;;;;;;172477;28;1056;-70
2022/05/04 00:20:57;;;;;;;2.92;1.92;;;11.30;99.90;;;;;;172344;28;1347;-68
2022/05/04 00:21:03;;;;;;;3.13;1.97;;;11.30;99.90;;;;;;172422;28;1112;-70
2022/05/04 00:21:09;;;;;;;2.72;1.95;;;11.40;99.90;;;;;;171197;28;2227;-69
2022/05/04 00:21:14;;;;;;;2.65;2.00;;;11.40;99.90;;;;;;171096;28;875;-67
2022/05/04 00:21:20;;;;;;;2.80;1.92;;;11.40;99.90;;;;;;171803;28;1109;-70
2022/05/04 00:21:25;;;;;;;2.90;2.00;;;11.40;99.90;;;;;;173069;28;1294;-71
2022/05/04 00:21:31;;;;;;;3.13;2.10;;;11.40;99.90;;;;;;173101;28;1094;-69
2022/05/04 00:21:37;;;;;;;3.43;2.27;;;11.40;99.90;;;;;;173673;28;1391;-71
2022/05/04 00:21:42;;;;;;;3.83;2.38;;;11.40;99.90;;;;;;173651;28;1377;-68
2022/05/04 00:21:48;;;;;;;3.77;2.40;;;11.40;99.90;;;;;;173879;28;1441;-70
2022/05/04 00:21:53;;;;;;;3.78;2.35;;;11.40;99.90;;;;;;173767;28;1313;-70
2022/05/04 00:21:59;;;;;;;3.95;2.22;;;11.40;99.90;;;;;;173664;28;1293;-71
2022/05/04 00:22:05;;;;;;;3.93;2.13;;;11.40;99.90;;;;;;173739;28;1444;-70
2022/05/04 00:22:10;;;;;;;3.63;2.00;;;11.40;99.90;;;;;;172821;28;1212;-67
2022/05/04 00:22:20;;;;;;;3.50;1.97;;;11.40;99.90;;;;;;173690;28;1269;-70
2022/05/04 00:22:26;;;;;;;3.85;2.00;;;11.40;99.90;;;;;;172527;28;1401;-71
2022/05/04 00:22:32;;;;;;;3.38;1.90;;;11.40;99.90;;;;;;173159;28;1490;-69
2022/05/04 00:22:37;;;;;;;3.50;1.90;;;11.40;99.90;;;;;;172803;28;1300;-69
2022/05/04 00:22:43;;;;;;;4.37;1.87;;;11.40;99.90;;;;;;173075;28;978;-69
2022/05/04 00:22:49;;;;;;;4.43;1.90;;;11.40;99.90;;;;;;172493;28;1407;-70
2022/05/04 00:22:55;;;;;;;4.07;1.95;;;11.50;99.90;;;;;;172992;28;1541;-70
2022/05/04 00:23:00;;;;;;;4.53;2.22;;;11.50;99.90;;;;;;173073;28;1013;-71
2022/05/04 00:23:06;;;;;;;4.73;2.30;;;11.50;99.90;;;;;;172564;28;1172;-72
2022/05/04 00:23:11;;;;;;;4.03;2.40;;;11.50;99.90;;;;;;172436;28;1657;-71
2022/05/04 00:23:17;;;;;;;3.45;2.40;;;11.50;99.90;;;;;;173106;28;1325;-70
2022/05/04 00:23:24;;;;;;;3.90;2.40;;;11.40;99.90;;;;;;172869;28;1458;-71
2022/05/04 00:23:29;;;;;;;3.40;2.16;;;11.50;99.90;;;;;;173233;28;994;-71
2022/05/04 00:23:35;;;;;;;4.10;2.10;;;11.50;99.90;;;;;;172799;28;2153;-69
2022/05/04 00:23:40;;;;;;;4.10;2.03;;;11.50;99.90;;;;;;172545;28;994;-70
2022/05/04 00:23:46;;;;;;;4.53;2.13;;;11.50;99.90;;;;;;172778;28;977;-72
2022/05/04 00:23:52;;;;;;;4.32;2.17;;;11.50;99.90;;;;;;172444;28;847;-71
2022/05/04 00:23:57;;;;;;;4.25;2.20;;;11.50;99.90;;;;;;172721;28;1177;-66
2022/05/04 00:24:03;;;;;;;4.07;2.13;;;11.50;99.90;;;;;;173636;28;1282;-70
2022/05/04 00:24:09;;;;;;;3.38;2.10;;;11.50;99.90;;;;;;173678;28;1024;-69
2022/05/04 00:24:19;;;;;;;3.67;2.08;;;11.50;99.90;;;;;;173210;28;1135;-69
2022/05/04 00:24:25;;;;;;;3.58;2.03;;;11.50;99.90;;;;;;172990;28;1500;-69
2022/05/04 00:24:30;;;;;;;3.35;1.90;;;11.50;99.90;;;;;;173087;28;911;-66
2022/05/04 00:24:36;;;;;;;3.27;1.90;;;11.50;99.90;;;;;;173214;28;892;-70
2022/05/04 00:24:42;;;;;;;3.60;1.90;;;11.40;99.90;;;;;;173214;28;976;-70
2022/05/04 00:24:48;;;;;;;3.73;1.83;;;11.50;99.90;;;;;;172324;28;969;-68
2022/05/04 00:24:54;;;;;;;3.60;1.80;;;11.50;99.90;;;;;;173356;28;1305;-71
2022/05/04 00:24:59;;;;;;;3.53;1.80;;;11.50;99.90;;;;;;173396;28;1374;-69
2022/05/04 00:25:06;;;;;;;3.80;1.83;;;11.50;99.90;;;;;;172450;28;1611;-71
2022/05/04 00:25:12;;;;;;;4.18;1.92;;;11.50;99.90;;;;;;173103;28;1294;-70
2022/05/04 00:25:17;;;;;;;3.77;2.07;;;11.50;99.90;;;;;;171639;28;1017;-69
2022/05/04 00:25:23;;;;;;;3.90;2.17;;;11.40;99.90;;;;;;171180;28;1174;-71
2022/05/04 00:25:28;;;;;;;3.95;2.22;;;11.50;99.90;;;;;;171795;28;1175;-68
2022/05/04 00:25:34;;;;;;;4.30;2.30;;;11.40;99.90;;;;;;172103;28;1324;-71
2022/05/04 00:25:39;;;;;;;3.67;2.28;;;11.40;99.90;;;;;;171603;28;1732;-70
2022/05/04 00:25:45;;;;;;;3.97;2.30;;;11.40;99.90;;;;;;171967;28;1542;-70
2022/05/04 00:25:51;;;;;;;4.10;2.22;;;11.40;99.90;;;;;;172420;28;831;-70
2022/05/04 00:25:57;;;;;;;4.07;2.17;;;11.40;99.90;;;;;;172960;28;1184;-69
2022/05/04 00:26:02;;;;;;;3.87;2.20;;;11.40;99.90;;;;;;172569;28;1627;-70
2022/05/04 00:26:08;;;;;;;3.70;2.17;;;11.40;99.90;;;;;;172276;28;1827;-69
2022/05/04 00:26:14;;;;;;;3.08;2.00;;;11.40;99.90;;;;;;171837;28;1076;-69
2022/05/04 00:26:19;;;;;;;2.53;1.87;;;11.40;99.90;;;;;;173082;28;1364;-71
2022/05/04 00:26:25;;;;;;;3.00;1.95;;;11.40;99.90;;;;;;172498;28;1099;-71
2022/05/04 00:26:30;;;;;;;4.13;1.95;;;11.40;99.90;;;;;;172254;28;1068;-71
2022/05/04 00:26:36;;;;;;;5.10;1.80;;;11.40;99.90;;;;;;171123;28;2012;-70
2022/05/04 00:26:42;;;;;;;5.57;2.00;;;11.40;99.90;;;;;;171729;28;1041;-71
2022/05/04 00:26:48;;;;;;;5.78;2.10;;;11.40;99.90;;;;;;171430;28;2062;-68
2022/05/04 00:26:53;;;;;;;5.47;2.00;;;11.30;99.90;;;;;;171528;28;1057;-71
2022/05/04 00:26:59;;;;;;;5.63;2.17;;;11.30;99.90;;;;;;171823;28;832;-68
2022/05/04 00:27:04;;;;;;;3.90;2.40;;;11.30;99.90;;;;;;170962;28;1272;-70
2022/05/04 00:27:10;;;;;;;3.88;2.35;;;11.30;99.90;;;;;;171004;28;1096;-71
2022/05/04 00:27:16;;;;;;;3.40;2.22;;;11.30;99.90;;;;;;171151;28;1131;-69
2022/05/04 00:27:21;;;;;;;3.50;2.20;;;11.30;99.90;;;;;;171321;28;1572;-66
2022/05/04 00:27:27;;;;;;;3.92;2.28;;;11.30;99.90;;;;;;171680;28;1309;-69
2022/05/04 00:27:33;;;;;;;3.50;2.08;;;11.30;99.90;;;;;;171374;28;2683;-68
2022/05/04 00:27:38;;;;;;;3.23;1.90;;;11.20;99.90;;;;;;171497;28;1169;-70
2022/05/04 00:27:44;;;;;;;3.42;1.88;;;11.20;99.90;;;;;;172306;28;1303;-71
2022/05/04 00:27:50;;;;;;;3.40;1.80;;;11.20;99.90;;;;;;172461;28;827;-68
2022/05/04 00:27:56;;;;;;;2.72;1.73;;;11.20;99.90;;;;;;171458;28;1567;-70
2022/05/04 00:28:02;;;;;;;2.17;1.63;;;11.20;99.90;;;;;;172474;28;1302;-71
2022/05/04 00:28:08;;;;;;;2.16;1.60;;;11.20;99.90;;;;;;172480;28;1043;-68
2022/05/04 00:28:14;;;;;;;2.10;1.77;;;11.20;99.90;;;;;;172649;28;1325;-68
2022/05/04 00:28:19;;;;;;;2.15;1.85;;;11.20;99.90;;;;;;172266;28;1397;-67
2022/05/04 00:28:25;;;;;;;2.25;2.00;;;11.20;99.90;;;;;;171734;28;1923;-69
2022/05/04 00:28:30;;;;;;;2.47;2.07;;;11.20;99.90;;;;;;172455;28;883;-70
2022/05/04 00:28:36;;;;;;;3.63;2.20;;;11.20;99.90;;;;;;171462;28;957;-71
2022/05/04 00:28:42;;;;;;;4.57;2.17;;;11.20;99.90;;;;;;172353;28;921;-69
2022/05/04 00:28:47;;;;;;;4.43;2.03;;;11.20;99.90;;;;;;172342;28;1169;-67
2022/05/04 00:28:53;;;;;;;4.22;1.92;;;11.20;99.90;;;;;;172005;28;1233;-70
2022/05/04 00:28:58;;;;;;;4.90;2.10;;;11.20;99.90;;;;;;171547;28;1762;-69
2022/05/04 00:29:04;;;;;;;5.10;2.15;;;11.20;99.90;;;;;;171734;28;1222;-70
2022/05/04 00:29:10;;;;;;;3.50;2.10;;;11.20;99.90;;;;;;172443;28;883;-69
2022/05/04 00:29:15;;;;;;;3.67;2.13;;;11.20;99.90;;;;;;172213;28;1222;-69
2022/05/04 00:29:21;;;;;;;3.78;2.17;;;11.20;99.90;;;;;;172202;28;1059;-70
2022/05/04 00:29:26;;;;;;;3.80;2.13;;;11.20;99.90;;;;;;172500;28;1013;-71
2022/05/04 00:29:32;;;;;;;3.40;2.10;;;11.20;99.90;;;;;;171534;28;1556;-69
2022/05/04 00:29:38;;;;;;;3.43;2.13;;;11.20;99.90;;;;;;171720;28;1323;-71
2022/05/04 00:29:44;;;;;;;3.13;2.10;;;11.20;99.90;;;;;;171692;28;1302;-70
2022/05/04 00:29:50;;;;;;;3.55;2.22;;;11.20;99.90;;;;;;173730;28;1418;-70
2022/05/04 00:29:55;;;;;;;5.10;2.22;;;11.20;99.90;;;;;;173383;28;1189;-68
2022/05/04 00:30:01;;;;;;;5.50;2.10;;;11.20;99.90;;;;;;173549;28;1484;-69
2022/05/04 00:30:07;;;;;;;5.40;2.07;;;11.30;99.90;;;;;;173625;28;1615;-70
2022/05/04 00:30:13;;;;;;;5.55;2.03;;;11.30;99.90;;;;;;172612;28;1287;-69
2022/05/04 00:30:18;;;;;;;5.57;2.08;;;11.30;99.90;;;;;;172309;28;1206;-70
2022/05/04 00:30:24;;;;;;;5.03;2.05;;;11.30;99.90;;;;;;171700;28;1061;-69
2022/05/04 00:30:29;;;;;;;3.90;2.00;;;11.30;99.90;;;;;;172396;28;1167;-70
2022/05/04 00:30:35;;;;;;;3.90;1.98;;;11.30;99.90;;;;;;171558;28;979;-69
2022/05/04 00:30:41;;;;;;;3.63;1.90;;;11.30;99.90;;;;;;171546;28;1272;-69
2022/05/04 00:30:46;;;;;;;3.53;1.85;;;11.30;99.90;;;;;;172364;28;1006;-70
2022/05/04 00:30:52;;;;;;;2.75;1.90;;;11.30;99.90;;;;;;172648;28;1193;-69
2022/05/04 00:30:58;;;;;;;2.55;1.85;;;11.30;99.90;;;;;;173706;28;1255;-70
2022/05/04 00:31:03;;;;;;;2.60;1.90;;;11.30;99.90;;;;;;173355;28;1188;-70